Time,TemperatureF,DewpointF,PressureIn,WindDirection,WindDirectionDegrees,WindSpeedMPH,WindSpeedGustMPH,Humidity,HourlyPrecipIn,Conditions,Clouds,dailyrainin,SoftwareType,DateUTC
2013-05-05 00:01:00,53.9,52.5,29.92,NE,50,10.0,10.0,95,0.08,,,0.00,Wunderground v.1.15,2013-05-05 04:01:00,
2013-05-05 00:11:00,53.9,52.8,29.91,NNE,24,9.0,12.0,96,0.08,,,0.01,Wunderground v.1.15,2013-05-05 04:11:00,
2013-05-05 00:21:00,53.9,52.5,29.91,NE,36,11.0,11.0,95,0.04,,,0.02,Wunderground v.1.15,2013-05-05 04:21:00,
2013-05-05 00:31:00,53.9,52.5,29.91,NNE,32,10.0,10.0,95,0.04,,,0.02,Wunderground v.1.15,2013-05-05 04:31:00,
2013-05-05 00:41:00,53.9,52.8,29.91,NE,53,10.0,10.0,96,0.04,,,0.03,Wunderground v.1.15,2013-05-05 04:41:00,
2013-05-05 00:51:00,53.8,52.7,29.90,NNE,32,11.0,17.0,96,0.06,,,0.04,Wunderground v.1.15,2013-05-05 04:51:00,
2013-05-05 01:01:00,53.8,52.7,29.89,NE,45,11.0,11.0,96,0.04,,,0.05,Wunderground v.1.15,2013-05-05 05:01:00,
2013-05-05 01:11:00,53.8,52.7,29.90,NE,55,9.0,9.0,96,0.08,,,0.06,Wunderground v.1.15,2013-05-05 05:11:00,
2013-05-05 01:21:00,53.8,52.7,29.89,ENE,57,9.0,9.0,96,0.10,,,0.08,Wunderground v.1.15,2013-05-05 05:21:00,
2013-05-05 01:31:00,53.9,52.8,29.89,NE,51,10.0,10.0,96,0.10,,,0.10,Wunderground v.1.15,2013-05-05 05:31:00,
2013-05-05 01:41:00,54.0,52.9,29.88,NE,51,11.0,11.0,96,0.08,,,0.11,Wunderground v.1.15,2013-05-05 05:41:00,
2013-05-05 01:51:00,54.0,52.9,29.88,ENE,78,10.0,12.0,96,0.08,,,0.13,Wunderground v.1.15,2013-05-05 05:51:00,
2013-05-05 02:01:00,54.1,53.0,29.88,ENE,71,8.0,8.0,96,0.06,,,0.13,Wunderground v.1.15,2013-05-05 06:01:00,
2013-05-05 02:11:00,54.1,53.0,29.89,East,85,9.0,9.0,96,0.00,,,0.14,Wunderground v.1.15,2013-05-05 06:11:00,
2013-05-05 02:21:00,54.2,53.1,29.88,ENE,72,7.0,8.0,96,0.11,,,0.16,Wunderground v.1.15,2013-05-05 06:21:00,
2013-05-05 02:31:00,54.1,53.0,29.87,NE,56,10.0,10.0,96,0.21,,,0.19,Wunderground v.1.15,2013-05-05 06:31:00,
2013-05-05 02:41:00,54.1,53.0,29.88,East,89,11.0,11.0,96,0.17,,,0.21,Wunderground v.1.15,2013-05-05 06:41:00,
2013-05-05 02:51:00,54.1,53.0,29.88,NE,55,9.0,9.0,96,0.13,,,0.24,Wunderground v.1.15,2013-05-05 06:51:00,
2013-05-05 03:01:00,54.0,52.9,29.88,ENE,75,8.0,8.0,96,0.13,,,0.26,Wunderground v.1.15,2013-05-05 07:01:00,
2013-05-05 03:11:00,53.9,52.8,29.87,ENE,65,7.0,9.0,96,0.13,,,0.28,Wunderground v.1.15,2013-05-05 07:11:00,
2013-05-05 03:21:00,53.8,52.7,29.86,NE,49,10.0,10.0,96,0.16,,,0.31,Wunderground v.1.15,2013-05-05 07:21:00,
2013-05-05 03:31:00,53.7,52.6,29.86,ENE,61,10.0,10.0,96,0.14,,,0.33,Wunderground v.1.15,2013-05-05 07:31:00,
2013-05-05 03:41:00,53.7,52.6,29.88,NE,44,7.0,8.0,96,0.14,,,0.35,Wunderground v.1.15,2013-05-05 07:41:00,
2013-05-05 03:51:00,53.6,52.5,29.85,NE,41,8.0,8.0,96,0.15,,,0.37,Wunderground v.1.15,2013-05-05 07:51:00,
2013-05-05 04:01:00,53.4,52.6,29.84,NE,38,10.0,10.0,97,0.13,,,0.39,Wunderground v.1.15,2013-05-05 08:01:00,
2013-05-05 04:11:00,53.3,52.5,29.84,NE,54,10.0,10.0,97,0.11,,,0.42,Wunderground v.1.15,2013-05-05 08:11:00,
2013-05-05 04:21:00,53.3,52.5,29.84,NE,49,9.0,9.0,97,0.10,,,0.44,Wunderground v.1.15,2013-05-05 08:21:00,
2013-05-05 04:31:00,53.2,52.4,29.85,NE,53,9.0,9.0,97,0.10,,,0.45,Wunderground v.1.15,2013-05-05 08:31:00,
2013-05-05 04:41:00,53.2,52.1,29.84,ENE,67,10.0,12.0,96,0.12,,,0.47,Wunderground v.1.15,2013-05-05 08:41:00,
2013-05-05 04:51:00,53.2,52.1,29.83,NNE,26,10.0,10.0,96,0.10,,,0.49,Wunderground v.1.15,2013-05-05 08:51:00,
2013-05-05 05:01:00,53.1,52.0,29.83,ENE,75,12.0,12.0,96,0.07,,,0.50,Wunderground v.1.15,2013-05-05 09:01:00,
2013-05-05 05:11:00,52.9,51.8,29.82,ENE,71,11.0,11.0,96,0.08,,,0.51,Wunderground v.1.15,2013-05-05 09:11:00,
2013-05-05 05:21:00,52.8,51.7,29.81,ENE,59,12.0,12.0,96,0.09,,,0.53,Wunderground v.1.15,2013-05-05 09:21:00,
2013-05-05 05:31:00,52.8,51.7,29.82,ENE,62,11.0,13.0,96,0.06,,,0.54,Wunderground v.1.15,2013-05-05 09:31:00,
2013-05-05 05:41:00,52.7,51.6,29.82,NE,56,11.0,15.0,96,0.08,,,0.55,Wunderground v.1.15,2013-05-05 09:41:00,
2013-05-05 05:51:00,52.6,51.5,29.82,East,83,11.0,11.0,96,0.05,,,0.56,Wunderground v.1.15,2013-05-05 09:51:00,
2013-05-05 06:01:00,52.5,51.4,29.82,NE,37,10.0,14.0,96,0.07,,,0.57,Wunderground v.1.15,2013-05-05 10:01:00,
2013-05-05 06:11:00,52.4,51.3,29.83,ENE,59,11.0,15.0,96,0.06,,,0.58,Wunderground v.1.15,2013-05-05 10:11:00,
2013-05-05 06:21:00,52.3,51.2,29.83,ENE,57,11.0,11.0,96,0.08,,,0.59,Wunderground v.1.15,2013-05-05 10:21:00,
2013-05-05 06:31:00,52.2,51.1,29.83,NE,45,10.0,10.0,96,0.08,,,0.61,Wunderground v.1.15,2013-05-05 10:31:00,
2013-05-05 06:41:00,52.2,51.1,29.83,NE,55,9.0,9.0,96,0.06,,,0.62,Wunderground v.1.15,2013-05-05 10:41:00,
2013-05-05 06:51:00,52.1,51.0,29.83,NE,51,9.0,10.0,96,0.08,,,0.63,Wunderground v.1.15,2013-05-05 10:51:00,
2013-05-05 07:01:00,52.1,51.0,29.83,ENE,67,11.0,11.0,96,0.07,,,0.64,Wunderground v.1.15,2013-05-05 11:01:00,
2013-05-05 07:11:00,52.1,51.0,29.83,NE,40,10.0,10.0,96,0.07,,,0.65,Wunderground v.1.15,2013-05-05 11:11:00,
2013-05-05 07:21:00,52.0,51.2,29.85,ENE,70,7.0,9.0,97,0.08,,,0.67,Wunderground v.1.15,2013-05-05 11:21:00,
2013-05-05 07:31:00,52.0,51.2,29.85,NE,56,8.0,8.0,97,0.08,,,0.68,Wunderground v.1.15,2013-05-05 11:31:00,
2013-05-05 07:41:00,52.0,51.2,29.86,NNE,17,7.0,9.0,97,0.09,,,0.69,Wunderground v.1.15,2013-05-05 11:41:00,
2013-05-05 07:51:00,52.0,50.9,29.87,NE,54,9.0,10.0,96,0.06,,,0.70,Wunderground v.1.15,2013-05-05 11:51:00,
2013-05-05 08:01:00,51.8,50.7,29.85,NE,50,11.0,12.0,96,0.08,,,0.72,Wunderground v.1.15,2013-05-05 12:01:00,
2013-05-05 08:11:00,51.7,50.6,29.84,NE,49,13.0,13.0,96,0.10,,,0.74,Wunderground v.1.15,2013-05-05 12:11:00,
2013-05-05 08:21:00,51.6,50.8,29.85,ENE,64,11.0,11.0,97,0.10,,,0.76,Wunderground v.1.15,2013-05-05 12:21:00,
2013-05-05 08:31:00,51.5,50.7,29.84,NE,49,10.0,12.0,97,0.11,,,0.78,Wunderground v.1.15,2013-05-05 12:31:00,
2013-05-05 08:41:00,51.5,50.7,29.85,ENE,76,9.0,15.0,97,0.09,,,0.80,Wunderground v.1.15,2013-05-05 12:41:00,
2013-05-05 08:51:00,51.4,50.6,29.84,NE,49,11.0,11.0,97,0.12,,,0.81,Wunderground v.1.15,2013-05-05 12:51:00,
2013-05-05 09:01:00,51.3,50.5,29.85,ENE,77,11.0,16.0,97,0.11,,,0.83,Wunderground v.1.15,2013-05-05 13:01:00,
2013-05-05 09:11:00,51.2,50.4,29.86,ENE,61,10.0,10.0,97,0.11,,,0.85,Wunderground v.1.15,2013-05-05 13:11:00,
2013-05-05 09:21:00,51.2,50.4,29.86,North,5,9.0,9.0,97,0.12,,,0.87,Wunderground v.1.15,2013-05-05 13:21:00,
2013-05-05 09:31:00,51.1,50.3,29.86,NE,38,10.0,11.0,97,0.12,,,0.89,Wunderground v.1.15,2013-05-05 13:31:00,
2013-05-05 09:41:00,51.0,50.2,29.85,ENE,61,11.0,11.0,97,0.11,,,0.91,Wunderground v.1.15,2013-05-05 13:41:00,
2013-05-05 09:51:00,51.0,50.2,29.85,NE,40,12.0,12.0,97,0.10,,,0.94,Wunderground v.1.15,2013-05-05 13:51:00,
2013-05-05 10:01:00,51.0,50.2,29.86,ENE,69,10.0,11.0,97,0.10,,,0.96,Wunderground v.1.15,2013-05-05 14:01:00,
2013-05-05 10:11:00,51.1,50.3,29.86,ENE,74,10.0,10.0,97,0.11,,,0.97,Wunderground v.1.15,2013-05-05 14:11:00,
2013-05-05 10:21:00,51.2,50.4,29.86,NNE,30,11.0,11.0,97,0.12,,,0.99,Wunderground v.1.15,2013-05-05 14:21:00,
2013-05-05 10:31:00,51.2,50.4,29.85,ENE,69,11.0,11.0,97,0.13,,,1.01,Wunderground v.1.15,2013-05-05 14:31:00,
2013-05-05 10:41:00,51.2,50.4,29.85,NNE,23,12.0,14.0,97,0.13,,,1.03,Wunderground v.1.15,2013-05-05 14:41:00,
2013-05-05 10:51:00,51.2,50.4,29.86,ENE,72,12.0,16.0,97,0.14,,,1.05,Wunderground v.1.15,2013-05-05 14:51:00,
2013-05-05 11:01:00,51.2,50.4,29.86,ENE,69,11.0,11.0,97,0.13,,,1.07,Wunderground v.1.15,2013-05-05 15:01:00,
2013-05-05 11:11:00,51.4,50.6,29.86,ENE,74,12.0,12.0,97,0.14,,,1.09,Wunderground v.1.15,2013-05-05 15:11:00,
2013-05-05 11:21:00,51.7,50.9,29.85,NE,49,11.0,11.0,97,0.12,,,1.11,Wunderground v.1.15,2013-05-05 15:21:00,
2013-05-05 11:31:00,51.8,51.0,29.85,NE,38,11.0,11.0,97,0.16,,,1.13,Wunderground v.1.15,2013-05-05 15:31:00,
2013-05-05 11:41:00,51.9,51.1,29.85,NE,45,8.0,8.0,97,0.12,,,1.15,Wunderground v.1.15,2013-05-05 15:41:00,
2013-05-05 11:51:00,52.1,51.3,29.86,NE,55,9.0,9.0,97,0.13,,,1.17,Wunderground v.1.15,2013-05-05 15:51:00,
2013-05-05 12:01:00,52.2,51.4,29.85,NE,55,11.0,16.0,97,0.09,,,1.18,Wunderground v.1.15,2013-05-05 16:01:00,
2013-05-05 12:11:00,52.3,51.5,29.86,ENE,62,10.0,10.0,97,0.09,,,1.20,Wunderground v.1.15,2013-05-05 16:11:00,
2013-05-05 12:21:00,52.5,51.7,29.85,NE,35,10.0,10.0,97,0.09,,,1.22,Wunderground v.1.15,2013-05-05 16:21:00,
2013-05-05 12:31:00,52.6,51.5,29.84,NE,55,9.0,9.0,96,0.11,,,1.23,Wunderground v.1.15,2013-05-05 16:31:00,
2013-05-05 12:41:00,52.6,51.5,29.84,ENE,68,10.0,12.0,96,0.12,,,1.25,Wunderground v.1.15,2013-05-05 16:41:00,
2013-05-05 12:51:00,52.6,51.5,29.83,ENE,61,11.0,14.0,96,0.11,,,1.27,Wunderground v.1.15,2013-05-05 16:51:00,
2013-05-05 13:01:00,52.7,51.6,29.83,ENE,74,11.0,12.0,96,0.08,,,1.28,Wunderground v.1.15,2013-05-05 17:01:00,
2013-05-05 13:11:00,52.9,51.8,29.83,NE,55,10.0,10.0,96,0.09,,,1.29,Wunderground v.1.15,2013-05-05 17:11:00,
2013-05-05 13:21:00,53.3,52.2,29.83,ENE,68,10.0,13.0,96,0.09,,,1.31,Wunderground v.1.15,2013-05-05 17:21:00,
2013-05-05 13:31:00,53.4,52.3,29.83,NNE,33,12.0,12.0,96,0.07,,,1.32,Wunderground v.1.15,2013-05-05 17:31:00,
2013-05-05 13:41:00,53.2,52.1,29.83,ENE,59,10.0,10.0,96,0.09,,,1.33,Wunderground v.1.15,2013-05-05 17:41:00,
2013-05-05 13:51:00,53.2,52.1,29.83,ENE,67,6.0,6.0,96,0.08,,,1.34,Wunderground v.1.15,2013-05-05 17:51:00,
2013-05-05 14:01:00,53.2,52.1,29.83,NNE,33,3.0,7.0,96,0.06,,,1.35,Wunderground v.1.15,2013-05-05 18:01:00,
2013-05-05 14:11:00,53.5,52.4,29.83,East,82,6.0,9.0,96,0.06,,,1.36,Wunderground v.1.15,2013-05-05 18:11:00,
2013-05-05 14:21:00,53.9,52.8,29.83,East,83,7.0,15.0,96,0.06,,,1.37,Wunderground v.1.15,2013-05-05 18:21:00,
2013-05-05 14:31:00,54.0,52.9,29.82,NE,43,8.0,8.0,96,0.05,,,1.38,Wunderground v.1.15,2013-05-05 18:31:00,
2013-05-05 14:41:00,54.4,53.3,29.82,ENE,77,8.0,9.0,96,0.06,,,1.39,Wunderground v.1.15,2013-05-05 18:41:00,
2013-05-05 14:51:00,54.6,53.5,29.82,NE,43,7.0,7.0,96,0.04,,,1.40,Wunderground v.1.15,2013-05-05 18:51:00,
2013-05-05 15:01:00,54.6,53.5,29.83,NE,55,7.0,7.0,96,0.05,,,1.41,Wunderground v.1.15,2013-05-05 19:01:00,
2013-05-05 15:11:00,54.5,53.1,29.83,East,81,6.0,13.0,95,0.05,,,1.41,Wunderground v.1.15,2013-05-05 19:11:00,
2013-05-05 15:21:00,54.5,53.1,29.83,NE,36,7.0,11.0,95,0.00,,,1.42,Wunderground v.1.15,2013-05-05 19:21:00,
2013-05-05 15:31:00,54.7,53.3,29.82,NE,49,7.0,9.0,95,0.00,,,1.42,Wunderground v.1.15,2013-05-05 19:31:00,
2013-05-05 15:41:00,54.6,53.2,29.82,East,80,8.0,8.0,95,0.04,,,1.43,Wunderground v.1.15,2013-05-05 19:41:00,
2013-05-05 15:51:00,54.5,53.1,29.81,ENE,69,10.0,10.0,95,0.00,,,1.43,Wunderground v.1.15,2013-05-05 19:51:00,
2013-05-05 16:01:00,54.8,53.7,29.81,ENE,59,11.0,11.0,96,0.00,,,1.44,Wunderground v.1.15,2013-05-05 20:01:00,
2013-05-05 16:11:00,55.6,54.5,29.80,ENE,73,8.0,8.0,96,0.00,,,1.44,Wunderground v.1.15,2013-05-05 20:11:00,
2013-05-05 16:21:00,55.4,54.0,29.80,North,5,6.0,6.0,95,0.00,,,1.45,Wunderground v.1.15,2013-05-05 20:21:00,
2013-05-05 16:31:00,55.1,53.7,29.80,ESE,115,3.0,3.0,95,0.00,,,1.45,Wunderground v.1.15,2013-05-05 20:31:00,
2013-05-05 16:41:00,55.1,53.7,29.81,WNW,300,0.0,0.0,95,0.00,,,1.46,Wunderground v.1.15,2013-05-05 20:41:00,
2013-05-05 16:51:00,55.0,53.6,29.81,NE,36,3.0,5.0,95,0.00,,,1.46,Wunderground v.1.15,2013-05-05 20:51:00,
2013-05-05 17:01:00,55.0,53.9,29.80,NNE,14,5.0,5.0,96,0.00,,,1.46,Wunderground v.1.15,2013-05-05 21:01:00,
2013-05-05 17:11:00,54.9,53.8,29.81,NNE,20,3.0,3.0,96,0.00,,,1.47,Wunderground v.1.15,2013-05-05 21:11:00,
2013-05-05 17:21:00,54.7,53.6,29.81,NNE,19,2.0,2.0,96,0.00,,,1.47,Wunderground v.1.15,2013-05-05 21:21:00,
2013-05-05 17:31:00,54.6,53.5,29.81,NNE,19,3.0,4.0,96,0.00,,,1.47,Wunderground v.1.15,2013-05-05 21:31:00,
2013-05-05 17:41:00,54.5,53.4,29.81,North,5,2.0,5.0,96,0.00,,,1.48,Wunderground v.1.15,2013-05-05 21:41:00,
2013-05-05 17:51:00,54.4,53.3,29.80,NNE,20,7.0,7.0,96,0.00,,,1.48,Wunderground v.1.15,2013-05-05 21:51:00,
2013-05-05 18:01:00,54.2,53.1,29.80,North,360,5.0,5.0,96,0.00,,,1.48,Wunderground v.1.15,2013-05-05 22:01:00,
2013-05-05 18:11:00,54.3,53.2,29.79,NNE,13,4.0,7.0,96,0.00,,,1.49,Wunderground v.1.15,2013-05-05 22:11:00,
2013-05-05 18:21:00,54.2,53.1,29.80,NE,39,6.0,6.0,96,0.00,,,1.49,Wunderground v.1.15,2013-05-05 22:21:00,
2013-05-05 18:31:00,54.1,53.0,29.80,NNE,28,6.0,8.0,96,0.00,,,1.49,Wunderground v.1.15,2013-05-05 22:31:00,
2013-05-05 18:41:00,54.0,52.9,29.80,NNE,16,6.0,6.0,96,0.00,,,1.49,Wunderground v.1.15,2013-05-05 22:41:00,
2013-05-05 18:51:00,54.0,52.9,29.80,North,9,6.0,6.0,96,0.00,,,1.49,Wunderground v.1.15,2013-05-05 22:51:00,
2013-05-05 19:01:00,54.0,52.9,29.80,NNE,25,5.0,5.0,96,0.00,,,1.50,Wunderground v.1.15,2013-05-05 23:01:00,
2013-05-05 19:11:00,53.8,52.7,29.80,NNE,22,6.0,6.0,96,0.00,,,1.50,Wunderground v.1.15,2013-05-05 23:11:00,
2013-05-05 19:21:00,53.8,52.7,29.79,NE,51,4.0,4.0,96,0.00,,,1.50,Wunderground v.1.15,2013-05-05 23:21:00,
2013-05-05 19:31:00,53.6,52.2,29.80,NE,42,5.0,5.0,95,0.00,,,1.50,Wunderground v.1.15,2013-05-05 23:31:00,
2013-05-05 19:41:00,53.3,51.9,29.79,North,5,3.0,3.0,95,0.00,,,1.50,Wunderground v.1.15,2013-05-05 23:41:00,
2013-05-05 19:51:00,53.2,52.1,29.80,North,5,4.0,4.0,96,0.00,,,1.51,Wunderground v.1.15,2013-05-05 23:51:00,
2013-05-05 20:01:00,53.1,52.0,29.80,North,9,4.0,4.0,96,0.00,,,1.51,Wunderground v.1.15,2013-05-06 00:01:00,
2013-05-05 20:11:00,53.1,52.0,29.80,North,5,3.0,3.0,96,0.00,,,1.51,Wunderground v.1.15,2013-05-06 00:11:00,
2013-05-05 20:21:00,53.0,51.9,29.80,NNE,30,3.0,5.0,96,0.00,,,1.51,Wunderground v.1.15,2013-05-06 00:21:00,
2013-05-05 20:31:00,53.0,51.9,29.79,NNE,21,4.0,4.0,96,0.00,,,1.51,Wunderground v.1.15,2013-05-06 00:31:00,
2013-05-05 20:41:00,53.0,51.9,29.79,NNE,13,5.0,5.0,96,0.00,,,1.51,Wunderground v.1.15,2013-05-06 00:41:00,
2013-05-05 20:51:00,52.9,51.8,29.79,North,5,5.0,5.0,96,0.00,,,1.51,Wunderground v.1.15,2013-05-06 00:51:00,
2013-05-05 21:01:00,52.9,52.1,29.79,NE,39,5.0,6.0,97,0.00,,,1.51,Wunderground v.1.15,2013-05-06 01:01:00,
2013-05-05 21:11:00,52.8,51.7,29.79,North,5,6.0,6.0,96,0.00,,,1.51,Wunderground v.1.15,2013-05-06 01:11:00,
2013-05-05 21:21:00,52.8,51.7,29.79,North,5,5.0,5.0,96,0.00,,,1.51,Wunderground v.1.15,2013-05-06 01:21:00,
2013-05-05 21:31:00,52.8,51.7,29.79,NNE,19,5.0,5.0,96,0.00,,,1.51,Wunderground v.1.15,2013-05-06 01:31:00,
2013-05-05 21:41:00,52.7,51.6,29.79,NE,41,4.0,5.0,96,0.00,,,1.52,Wunderground v.1.15,2013-05-06 01:41:00,
2013-05-05 21:51:00,52.7,51.9,29.79,NE,54,5.0,5.0,97,0.00,,,1.52,Wunderground v.1.15,2013-05-06 01:51:00,
2013-05-05 22:01:00,52.6,51.8,29.79,NNE,24,5.0,5.0,97,0.00,,,1.52,Wunderground v.1.15,2013-05-06 02:01:00,
2013-05-05 22:11:00,52.6,51.8,29.79,NE,51,5.0,5.0,97,0.00,,,1.52,Wunderground v.1.15,2013-05-06 02:11:00,
2013-05-05 22:21:00,52.6,51.8,29.78,NNE,15,3.0,4.0,97,0.00,,,1.52,Wunderground v.1.15,2013-05-06 02:21:00,
2013-05-05 22:31:00,52.6,51.8,29.79,ENE,63,5.0,5.0,97,0.00,,,1.52,Wunderground v.1.15,2013-05-06 02:31:00,
2013-05-05 22:41:00,52.7,51.9,29.79,East,94,3.0,3.0,97,0.00,,,1.52,Wunderground v.1.15,2013-05-06 02:41:00,
2013-05-05 22:51:00,52.8,52.0,29.79,NE,35,2.0,2.0,97,0.00,,,1.52,Wunderground v.1.15,2013-05-06 02:51:00,
2013-05-05 23:01:00,52.8,52.3,29.80,NE,42,2.0,2.0,98,0.00,,,1.52,Wunderground v.1.15,2013-05-06 03:01:00,
2013-05-05 23:11:00,52.9,52.4,29.80,North,5,1.0,2.0,98,0.00,,,1.52,Wunderground v.1.15,2013-05-06 03:11:00,
2013-05-05 23:21:00,53.0,52.5,29.80,NE,36,2.0,2.0,98,0.00,,,1.52,Wunderground v.1.15,2013-05-06 03:21:00,
2013-05-05 23:31:00,53.1,52.6,29.80,NNE,25,2.0,2.0,98,0.00,,,1.52,Wunderground v.1.15,2013-05-06 03:31:00,
2013-05-05 23:41:00,53.2,52.7,29.79,NE,35,2.0,3.0,98,0.00,,,1.52,Wunderground v.1.15,2013-05-06 03:41:00,
2013-05-05 23:51:00,53.2,52.7,29.79,NE,38,2.0,2.0,98,0.00,,,1.52,Wunderground v.1.15,2013-05-06 03:51:00,